Time;durP1;ratioP1;P1;durP2;ratioP2;P2;SDS_P1;SDS_P2;PMS_P1;PMS_P2;Temp;Humidity;BMP_temperature;BMP_pressure;BME280_temperature;BME280_humidity;BME280_pressure;Samples;Min_cycle;Max_cycle;Signal;HPM_P1;HPM_P2
2023/03/04 00:02:26;;;;;;;60.60;31.80;;;;;;;-0.10;68.43;99033.40;108621;1252;108876;-70
2023/03/04 00:04:54;;;;;;;60.30;30.80;;;;;;;-0.10;68.36;99038.80;108674;1252;95758;-70
2023/03/04 00:07:22;;;;;;;61.70;31.20;;;;;;;-0.09;68.45;99038.63;108725;1253;95939;-70
2023/03/04 00:09:50;;;;;;;60.10;30.80;;;;;;;-0.10;68.37;99043.70;108781;1252;111224;-69
2023/03/04 00:12:17;;;;;;;59.60;29.80;;;;;;;-0.10;68.56;99041.44;108853;1253;100890;-69
2023/03/04 00:14:45;;;;;;;55.60;28.90;;;;;;;-0.11;68.51;99044.77;108809;1253;106753;-69
2023/03/04 00:17:13;;;;;;;57.20;27.70;;;;;;;-0.13;68.64;99042.38;108760;1253;95652;-78
2023/03/04 00:19:41;;;;;;;58.60;29.50;;;;;;;-0.16;68.54;99035.30;108839;1252;95612;-70
2023/03/04 00:22:09;;;;;;;65.10;31.40;;;;;;;-0.17;68.60;99029.07;108853;1253;110866;-70
2023/03/04 00:24:36;;;;;;;61.80;31.40;;;;;;;-0.18;68.63;99023.33;108950;1253;100809;-70
2023/03/04 00:27:04;;;;;;;64.00;31.10;;;;;;;-0.16;68.37;99019.11;108768;1253;107391;-70
2023/03/04 00:29:32;;;;;;;56.60;28.40;;;;;;;-0.15;68.55;99010.36;108714;1253;95678;-70
2023/03/04 00:32:00;;;;;;;52.10;26.60;;;;;;;-0.14;68.25;99007.54;108662;1252;96229;-70
2023/03/04 00:34:28;;;;;;;58.30;27.80;;;;;;;-0.12;68.44;99014.80;108726;1253;111481;-70
2023/03/04 00:37:00;;;;;;;57.30;27.80;;;;;;;-0.12;68.27;99013.27;108764;1253;100604;-70
2023/03/04 00:39:28;;;;;;;56.30;28.90;;;;;;;-0.13;68.32;99001.78;108702;1253;106082;-70
2023/03/04 00:41:55;;;;;;;53.80;26.00;;;;;;;-0.14;68.32;98995.02;108633;1252;95644;-70
2023/03/04 00:44:23;;;;;;;57.90;27.20;;;;;;;-0.14;68.62;98993.77;108865;1252;95705;-70
2023/03/04 00:46:51;;;;;;;59.60;29.90;;;;;;;-0.15;68.57;98991.89;108918;1253;111928;-70
2023/03/04 00:49:19;;;;;;;58.00;27.50;;;;;;;-0.17;68.43;98992.13;108911;1252;100864;-70
2023/03/04 00:51:46;;;;;;;55.80;26.30;;;;;;;-0.16;68.51;98994.02;108842;1252;105552;-70
2023/03/04 00:54:14;;;;;;;62.40;30.50;;;;;;;-0.16;68.54;98988.79;108776;1253;95579;-70
2023/03/04 00:56:43;;;;;;;57.50;28.40;;;;;;;-0.15;68.46;98986.48;108866;1252;95586;-69
2023/03/04 00:59:11;;;;;;;64.20;28.30;;;;;;;-0.15;68.49;98980.56;108757;1253;111229;-70
2023/03/04 01:01:38;;;;;;;56.60;27.00;;;;;;;-0.14;68.66;98980.02;108842;1253;100879;-69
2023/03/04 01:04:06;;;;;;;56.20;27.40;;;;;;;-0.15;68.36;98970.45;108860;1253;107091;-69
2023/03/04 01:06:34;;;;;;;57.20;27.40;;;;;;;-0.13;68.55;98968.66;108848;1252;95915;-70
2023/03/04 01:09:02;;;;;;;59.60;28.80;;;;;;;-0.14;68.43;98968.50;108903;1253;95560;-69
2023/03/04 01:11:30;;;;;;;59.30;27.30;;;;;;;-0.13;68.38;98966.04;108829;1253;111101;-79
2023/03/04 01:13:58;;;;;;;59.70;26.10;;;;;;;-0.12;68.41;98959.38;108850;1252;99796;-70
2023/03/04 01:16:25;;;;;;;58.30;30.00;;;;;;;-0.12;68.57;98953.64;108882;1252;107633;-70
2023/03/04 01:18:53;;;;;;;57.80;27.80;;;;;;;-0.11;68.46;98947.69;108863;1252;95547;-69
2023/03/04 01:21:21;;;;;;;61.30;27.50;;;;;;;-0.10;68.46;98945.01;108798;1252;96100;-69
2023/03/04 01:23:50;;;;;;;56.40;26.90;;;;;;;-0.11;68.43;98943.33;108719;1253;111284;-69
2023/03/04 01:26:18;;;;;;;52.00;25.70;;;;;;;-0.12;68.52;98944.38;108656;1254;100923;-70
2023/03/04 01:28:46;;;;;;;49.40;23.70;;;;;;;-0.10;68.56;98942.08;108785;1253;107248;-69
2023/03/04 01:31:13;;;;;;;55.60;27.70;;;;;;;-0.12;68.39;98936.55;108834;1252;95615;-71
2023/03/04 01:33:41;;;;;;;53.50;26.20;;;;;;;-0.12;68.50;98934.80;108908;1252;95600;-70
2023/03/04 01:36:09;;;;;;;61.30;28.10;;;;;;;-0.13;68.63;98927.52;108729;1252;111255;-69
2023/03/04 01:38:37;;;;;;;55.10;24.50;;;;;;;-0.12;68.37;98926.61;108883;1253;100818;-70
2023/03/04 01:41:06;;;;;;;57.10;27.50;;;;;;;-0.11;68.39;98921.36;108781;1252;108535;-69
2023/03/04 01:43:35;;;;;;;54.50;24.80;;;;;;;-0.13;68.45;98920.36;108797;1253;96028;-70
2023/03/04 01:46:04;;;;;;;59.60;28.40;;;;;;;-0.16;68.46;98914.71;108823;1252;96286;-69
2023/03/04 01:48:37;;;;;;;57.60;27.90;;;;;;;-0.18;68.49;98905.69;108877;1253;111847;-70
2023/03/04 01:51:11;;;;;;;56.50;28.40;;;;;;;-0.18;68.26;98899.92;108886;1253;100871;-70
2023/03/04 01:53:38;;;;;;;;;;;;;;;-0.17;68.49;98897.48;108629;1253;107610;-70
2023/03/04 01:56:29;;;;;;;61.50;28.70;;;;;;;-0.18;68.57;98895.23;108764;1254;95537;-70
2023/03/04 01:59:09;;;;;;;57.90;26.90;;;;;;;-0.16;68.59;98895.34;108526;1254;95605;-70
2023/03/04 02:01:37;;;;;;;59.70;27.00;;;;;;;-0.14;68.38;98891.98;108743;1254;110690;-70
2023/03/04 02:04:07;;;;;;;61.80;29.00;;;;;;;-0.14;68.52;98894.77;108483;1254;100929;-69
2023/03/04 02:06:37;;;;;;;65.20;30.60;;;;;;;-0.16;68.39;98893.95;108587;1258;106802;-75
2023/03/04 02:09:06;;;;;;;62.80;29.60;;;;;;;-0.16;68.48;98895.53;108639;1254;95605;-69
2023/03/04 02:11:35;;;;;;;65.20;31.50;;;;;;;-0.13;68.48;98898.07;108507;1254;96189;-70
2023/03/04 02:14:04;;;;;;;60.90;29.70;;;;;;;-0.11;68.58;98896.77;108780;1254;111450;-70
2023/03/04 02:16:32;;;;;;;64.00;29.20;;;;;;;-0.09;68.51;98891.48;108690;1253;101597;-70
2023/03/04 02:19:01;;;;;;;62.60;29.30;;;;;;;-0.10;68.41;98887.50;108632;1254;107722;-70
2023/03/04 02:21:32;;;;;;;68.10;30.30;;;;;;;-0.11;68.66;98887.18;108772;1254;95635;-69
2023/03/04 02:24:14;;;;;;;65.60;32.60;;;;;;;-0.12;68.57;98887.90;108526;1254;95616;-69
2023/03/04 02:26:43;;;;;;;70.20;31.00;;;;;;;-0.13;68.72;98880.27;108728;1254;111304;-69
2023/03/04 02:29:14;;;;;;;64.30;29.80;;;;;;;-0.16;68.59;98877.92;108798;1254;101198;-69
2023/03/04 02:31:45;;;;;;;70.30;32.60;;;;;;;-0.17;68.52;98877.45;108474;1254;107747;-70
2023/03/04 02:34:17;;;;;;;64.00;30.80;;;;;;;-0.17;68.57;98874.48;108663;1255;95610;-70
2023/03/04 02:36:47;;;;;;;73.20;34.30;;;;;;;-0.17;68.71;98870.27;108685;1253;95600;-70
2023/03/04 02:39:18;;;;;;;68.40;31.20;;;;;;;-0.14;68.66;98869.33;108826;1254;112388;-76
2023/03/04 02:41:52;;;;;;;73.70;32.30;;;;;;;-0.14;68.53;98864.63;108795;1254;100994;-69
2023/03/04 02:44:31;;;;;;;66.30;30.30;;;;;;;-0.16;68.56;98859.79;108610;1254;107664;-70
2023/03/04 02:47:00;;;;;;;70.00;31.20;;;;;;;-0.14;68.70;98858.51;108789;1254;95656;-71
2023/03/04 02:49:30;;;;;;;74.00;34.70;;;;;;;-0.15;68.71;98855.74;108769;1253;95587;-70
2023/03/04 02:52:04;;;;;;;65.80;31.10;;;;;;;-0.15;68.56;98853.31;108810;1252;111283;-71
2023/03/04 02:54:32;;;;;;;75.60;34.90;;;;;;;-0.14;68.59;98849.11;108693;1252;99630;-69
2023/03/04 02:57:05;;;;;;;79.90;35.50;;;;;;;-0.13;68.61;98851.86;108854;1253;106424;-71
2023/03/04 02:59:34;;;;;;;74.70;35.20;;;;;;;-0.15;68.51;98847.23;108671;1253;95997;-70
2023/03/04 03:02:03;;;;;;;71.40;33.90;;;;;;;-0.14;68.70;98842.50;108849;1252;95678;-69
2023/03/04 03:04:31;;;;;;;74.00;33.10;;;;;;;-0.12;68.60;98837.18;108897;1253;110723;-70
2023/03/04 03:06:58;;;;;;;70.70;32.90;;;;;;;-0.11;68.54;98836.11;108853;1252;100878;-70
2023/03/04 03:09:26;;;;;;;73.30;34.40;;;;;;;-0.13;68.44;98826.59;108842;1253;107162;-70
2023/03/04 03:12:02;;;;;;;74.50;33.20;;;;;;;-0.14;68.58;98824.17;108819;1252;95547;-70
2023/03/04 03:14:30;;;;;;;71.60;33.70;;;;;;;-0.15;68.61;98827.88;108871;1252;95895;-70
2023/03/04 03:16:58;;;;;;;68.10;31.80;;;;;;;-0.13;68.56;98821.20;108896;1252;110746;-70
2023/03/04 03:19:26;;;;;;;69.50;31.40;;;;;;;-0.14;68.45;98814.25;108914;1252;100827;-70
2023/03/04 03:21:54;;;;;;;65.10;29.70;;;;;;;-0.15;68.67;98810.28;108880;1253;106689;-70
2023/03/04 03:24:22;;;;;;;72.20;31.00;;;;;;;-0.16;68.66;98806.64;108888;1253;95602;-70
2023/03/04 03:26:50;;;;;;;67.60;31.80;;;;;;;-0.16;68.55;98807.00;108722;1252;95644;-69
2023/03/04 03:29:18;;;;;;;74.00;32.50;;;;;;;-0.17;68.55;98803.34;108829;1252;111323;-70
2023/03/04 03:31:46;;;;;;;64.10;31.10;;;;;;;-0.19;68.69;98803.43;108817;1253;100518;-70
2023/03/04 03:34:14;;;;;;;70.90;31.70;;;;;;;-0.19;68.61;98803.08;108833;1252;107673;-78
2023/03/04 03:36:42;;;;;;;64.40;29.10;;;;;;;-0.18;68.74;98800.78;108883;1253;95573;-70
2023/03/04 03:39:10;;;;;;;68.50;31.80;;;;;;;-0.18;68.69;98800.94;108880;1253;95646;-72
2023/03/04 03:41:38;;;;;;;67.30;31.70;;;;;;;-0.18;68.66;98797.45;108859;1253;111318;-70
2023/03/04 03:44:06;;;;;;;67.30;31.00;;;;;;;-0.18;68.73;98795.55;108912;1252;100870;-76
2023/03/04 03:46:36;;;;;;;62.90;30.10;;;;;;;-0.17;68.66;98796.02;108891;1252;106644;-70
2023/03/04 03:49:04;;;;;;;69.00;32.00;;;;;;;-0.16;68.65;98796.17;108902;1253;95632;-70
2023/03/04 03:51:32;;;;;;;61.20;28.30;;;;;;;-0.17;68.77;98792.20;108898;1256;95650;-69
2023/03/04 03:54:00;;;;;;;70.40;29.90;;;;;;;-0.17;68.84;98792.03;108680;1253;110728;-70
2023/03/04 03:56:28;;;;;;;65.40;30.00;;;;;;;-0.18;68.78;98786.82;108851;1252;99748;-69
2023/03/04 03:58:56;;;;;;;63.90;29.10;;;;;;;-0.16;68.62;98785.36;108884;1254;108078;-70
2023/03/04 04:01:24;;;;;;;70.60;31.20;;;;;;;-0.16;68.78;98779.27;108907;1252;95623;-69
2023/03/04 04:03:52;;;;;;;63.90;29.70;;;;;;;-0.16;68.75;98778.06;108933;1253;95592;-70
2023/03/04 04:06:20;;;;;;;61.80;29.80;;;;;;;-0.16;68.70;98774.05;108883;1253;111066;-75
2023/03/04 04:08:48;;;;;;;61.90;29.70;;;;;;;-0.14;68.73;98771.55;108879;1254;99580;-69
2023/03/04 04:11:16;;;;;;;68.00;30.60;;;;;;;-0.13;68.91;98765.77;108906;1252;107310;-80
2023/03/04 04:13:44;;;;;;;61.40;27.60;;;;;;;-0.13;68.92;98770.98;108841;1252;95701;-70
2023/03/04 04:16:12;;;;;;;66.60;29.60;;;;;;;-0.13;68.93;98764.20;108928;1253;96072;-80
2023/03/04 04:18:40;;;;;;;61.80;28.40;;;;;;;-0.12;68.90;98763.10;108839;1253;111475;-69
2023/03/04 04:21:08;;;;;;;60.60;27.00;;;;;;;-0.10;68.90;98753.46;108936;1253;100923;-70
2023/03/04 04:23:36;;;;;;;68.90;31.50;;;;;;;-0.09;68.97;98751.52;108896;1252;106611;-69
2023/03/04 04:26:04;;;;;;;59.90;26.30;;;;;;;-0.08;69.03;98755.31;108849;1253;95602;-71
2023/03/04 04:28:33;;;;;;;64.70;28.60;;;;;;;-0.09;68.99;98750.13;108915;1252;95591;-69
2023/03/04 04:31:00;;;;;;;61.90;26.90;;;;;;;-0.11;69.12;98751.92;108869;1253;111373;-70
2023/03/04 04:33:28;;;;;;;61.60;26.70;;;;;;;-0.12;69.12;98748.33;108875;1254;99549;-70
2023/03/04 04:35:56;;;;;;;62.50;27.70;;;;;;;-0.11;69.25;98750.55;108846;1253;107636;-70
2023/03/04 04:38:24;;;;;;;66.60;28.50;;;;;;;-0.10;68.97;98747.34;108889;1253;95975;-72
2023/03/04 04:40:52;;;;;;;61.20;28.10;;;;;;;-0.09;69.09;98745.91;108635;1253;95709;-69
2023/03/04 04:43:20;;;;;;;59.90;26.30;;;;;;;-0.07;68.99;98742.55;108871;1253;110831;-70
2023/03/04 04:45:48;;;;;;;60.10;27.50;;;;;;;-0.06;69.17;98743.05;108910;1252;100295;-70
2023/03/04 04:48:16;;;;;;;56.70;25.50;;;;;;;-0.07;69.21;98740.11;108890;1253;107617;-69
2023/03/04 04:50:44;;;;;;;62.10;29.40;;;;;;;-0.08;69.19;98737.70;108831;1257;95840;-69
2023/03/04 04:53:13;;;;;;;65.40;29.50;;;;;;;-0.09;69.30;98738.81;108926;1254;95598;-77
2023/03/04 04:55:41;;;;;;;61.70;26.50;;;;;;;-0.12;69.36;98742.54;108938;1252;111256;-70
2023/03/04 04:58:09;;;;;;;64.90;27.50;;;;;;;-0.14;69.64;98743.12;108909;1253;100849;-70
2023/03/04 05:00:37;;;;;;;59.40;27.10;;;;;;;-0.16;69.39;98736.38;108904;1254;107599;-70
2023/03/04 05:03:05;;;;;;;66.00;28.10;;;;;;;-0.15;69.59;98732.35;108914;1252;95698;-70
2023/03/04 05:05:33;;;;;;;61.40;26.80;;;;;;;-0.14;69.54;98729.02;108879;1252;95589;-70
2023/03/04 05:08:01;;;;;;;59.50;26.70;;;;;;;-0.13;69.36;98724.12;108882;1253;110265;-70
2023/03/04 05:10:28;;;;;;;59.50;27.40;;;;;;;-0.12;69.27;98722.32;108937;1253;100855;-69
2023/03/04 05:12:56;;;;;;;61.90;26.70;;;;;;;-0.10;69.21;98721.39;108861;1253;107130;-70
2023/03/04 05:15:24;;;;;;;61.50;28.70;;;;;;;-0.09;69.55;98716.48;108895;1256;95630;-70
2023/03/04 05:17:52;;;;;;;58.10;27.50;;;;;;;-0.10;69.22;98709.35;108929;1254;95586;-70
2023/03/04 05:20:22;;;;;;;61.50;27.60;;;;;;;-0.08;69.52;98706.51;108929;1253;111320;-77
2023/03/04 05:22:51;;;;;;;61.80;28.50;;;;;;;-0.09;69.49;98707.06;108864;1253;100117;-70
2023/03/04 05:25:18;;;;;;;60.80;26.00;;;;;;;-0.09;69.33;98703.05;108831;1252;107724;-70
2023/03/04 05:27:47;;;;;;;62.00;26.70;;;;;;;-0.07;69.40;98704.20;108883;1254;95685;-70
2023/03/04 05:30:15;;;;;;;54.30;26.10;;;;;;;-0.05;69.23;98702.73;108903;1254;95594;-76
2023/03/04 05:32:42;;;;;;;57.50;26.60;;;;;;;-0.04;69.26;98699.39;108809;1253;110090;-70
2023/03/04 05:35:10;;;;;;;58.30;27.00;;;;;;;-0.03;69.39;98695.70;108887;1252;100991;-70
2023/03/04 05:37:38;;;;;;;58.10;26.90;;;;;;;-0.02;69.41;98691.13;108884;1252;107116;-70
2023/03/04 05:40:08;;;;;;;55.70;24.60;;;;;;;0.00;69.38;98694.02;108891;1253;95589;-70
2023/03/04 05:42:36;;;;;;;60.00;26.10;;;;;;;0.01;69.41;98694.86;108862;1254;95642;-70
2023/03/04 05:45:04;;;;;;;56.40;25.50;;;;;;;0.02;69.25;98697.09;108932;1254;111092;-70
2023/03/04 05:47:32;;;;;;;58.00;26.30;;;;;;;0.03;69.21;98690.60;108852;1252;100852;-70
2023/03/04 05:50:00;;;;;;;56.90;25.00;;;;;;;0.04;69.41;98693.00;108879;1254;107694;-69
2023/03/04 05:52:28;;;;;;;57.30;25.50;;;;;;;0.06;69.42;98687.01;108832;1251;95675;-70
2023/03/04 05:54:57;;;;;;;58.50;25.80;;;;;;;0.09;69.48;98681.83;108965;1252;95695;-70
2023/03/04 05:57:25;;;;;;;56.10;25.80;;;;;;;0.13;69.62;98684.14;108894;1252;110724;-69
2023/03/04 05:59:52;;;;;;;53.90;24.30;;;;;;;0.15;69.48;98684.95;108749;1252;100471;-70
2023/03/04 06:02:20;;;;;;;64.50;27.00;;;;;;;0.17;69.46;98684.02;108710;1253;107619;-72
2023/03/04 06:04:49;;;;;;;56.10;26.50;;;;;;;0.20;69.37;98684.08;108820;1254;95825;-71
2023/03/04 06:07:17;;;;;;;58.30;26.30;;;;;;;0.22;69.31;98681.19;108625;1252;213217;-69
2023/03/04 06:09:45;;;;;;;52.00;23.80;;;;;;;0.26;69.29;98684.37;108759;1253;110692;-71
2023/03/04 06:12:13;;;;;;;56.20;26.80;;;;;;;0.28;69.36;98684.65;108744;1253;99514;-71
2023/03/04 06:14:41;;;;;;;57.70;26.80;;;;;;;0.31;69.38;98690.84;108596;1252;107628;-80
2023/03/04 06:17:09;;;;;;;52.40;25.10;;;;;;;0.32;69.36;98689.77;108700;1253;95908;-71
2023/03/04 06:19:38;;;;;;;51.80;24.60;;;;;;;0.33;69.35;98689.71;108618;1252;96049;-71
2023/03/04 06:22:07;;;;;;;60.70;29.80;;;;;;;0.35;69.46;98685.29;108780;1253;111202;-69
2023/03/04 06:24:35;;;;;;;60.40;28.00;;;;;;;0.38;69.27;98683.75;108652;1257;100810;-72
2023/03/04 06:27:03;;;;;;;56.20;26.50;;;;;;;0.41;69.32;98687.98;108674;1253;108122;-71
2023/03/04 06:29:31;;;;;;;62.80;30.60;;;;;;;0.43;69.36;98689.16;108675;1253;95883;-72
2023/03/04 06:32:00;;;;;;;58.30;27.10;;;;;;;0.46;69.27;98690.09;108678;1253;95675;-70
2023/03/04 06:34:28;;;;;;;64.90;30.70;;;;;;;0.50;69.40;98686.99;108721;1253;112732;-72
2023/03/04 06:36:56;;;;;;;58.80;26.80;;;;;;;0.55;69.39;98692.74;108672;1251;100911;-72
2023/03/04 06:39:24;;;;;;;58.10;29.50;;;;;;;0.61;69.48;98691.98;108598;1252;107627;-70
2023/03/04 06:41:52;;;;;;;59.30;27.60;;;;;;;0.65;69.36;98697.05;108732;1253;95649;-69
2023/03/04 06:44:20;;;;;;;59.10;27.60;;;;;;;0.66;69.39;98695.64;108936;1252;95564;-69
2023/03/04 06:46:48;;;;;;;58.30;28.50;;;;;;;0.70;69.34;98703.16;108962;1251;111228;-69
2023/03/04 06:49:16;;;;;;;55.40;26.40;;;;;;;0.72;69.23;98710.94;108896;1253;100872;-73
2023/03/04 06:51:44;;;;;;;59.60;29.70;;;;;;;0.70;69.12;98716.77;108835;1251;107616;-69
2023/03/04 06:54:12;;;;;;;57.70;27.00;;;;;;;0.70;69.16;98720.23;108926;1253;95513;-69
2023/03/04 06:56:40;;;;;;;58.30;27.20;;;;;;;0.70;68.99;98725.14;108913;1252;95594;-69
2023/03/04 06:59:08;;;;;;;58.40;28.70;;;;;;;0.70;68.73;98718.87;108888;1252;110890;-69
2023/03/04 07:01:37;;;;;;;58.10;25.70;;;;;;;0.71;69.17;98719.33;108928;1251;100484;-69
2023/03/04 07:04:05;;;;;;;60.90;28.40;;;;;;;0.74;69.03;98725.35;108824;1252;107871;-69
2023/03/04 07:06:33;;;;;;;53.80;26.70;;;;;;;0.77;68.79;98725.95;108870;1253;95670;-69
2023/03/04 07:09:01;;;;;;;56.80;26.80;;;;;;;0.78;68.84;98727.81;108978;1251;95544;-73
2023/03/04 07:11:29;;;;;;;64.40;31.90;;;;;;;0.78;68.67;98733.23;108890;1252;111404;-70
2023/03/04 07:13:57;;;;;;;52.10;25.90;;;;;;;0.79;69.13;98733.02;108914;1253;100876;-70
2023/03/04 07:16:28;;;;;;;54.90;27.70;;;;;;;0.81;69.00;98729.25;108900;1252;106636;-70
2023/03/04 07:18:57;;;;;;;58.30;30.70;;;;;;;0.84;69.02;98732.98;108872;1253;95532;-69
2023/03/04 07:21:25;;;;;;;62.60;30.20;;;;;;;0.87;68.95;98735.16;108906;1251;95695;-69
2023/03/04 07:23:52;;;;;;;56.80;26.80;;;;;;;0.88;68.59;98737.02;108895;1251;111199;-69
2023/03/04 07:26:21;;;;;;;57.40;28.80;;;;;;;0.90;69.05;98733.65;108976;1251;100568;-69
2023/03/04 07:28:51;;;;;;;64.00;32.20;;;;;;;0.91;68.78;98730.64;108864;1252;107624;-71
2023/03/04 07:31:29;;;;;;;58.30;28.40;;;;;;;0.90;68.66;98729.65;108921;1252;95594;-70
2023/03/04 07:34:00;;;;;;;57.30;28.60;;;;;;;0.89;68.75;98725.63;108857;1252;95623;-69
2023/03/04 07:36:28;;;;;;;61.20;29.90;;;;;;;0.92;68.69;98732.00;108783;1253;111654;-69
2023/03/04 07:38:56;;;;;;;55.70;26.60;;;;;;;0.97;68.85;98732.34;108886;1252;99609;-69
2023/03/04 07:41:27;;;;;;;59.10;28.90;;;;;;;0.97;68.35;98729.35;108806;1253;107563;-68
2023/03/04 07:43:57;;;;;;;58.70;27.80;;;;;;;0.99;68.59;98726.16;108578;1253;95579;-68
2023/03/04 07:46:25;;;;;;;58.90;30.60;;;;;;;1.02;68.64;98725.49;108750;1253;95758;-72
2023/03/04 07:48:54;;;;;;;58.70;29.10;;;;;;;1.04;68.61;98727.51;108835;1253;110915;-70
2023/03/04 07:51:26;;;;;;;60.30;29.50;;;;;;;1.07;68.09;98726.34;108763;1254;99606;-71
2023/03/04 07:53:59;;;;;;;60.30;30.30;;;;;;;1.07;68.45;98724.09;108785;1256;107652;-72
2023/03/04 07:56:31;;;;;;;57.40;29.00;;;;;;;1.10;68.76;98728.00;108593;1254;95597;-71
2023/03/04 07:59:00;;;;;;;59.20;30.80;;;;;;;1.12;68.69;98729.98;108650;1254;95687;-72
2023/03/04 08:01:31;;;;;;;61.50;30.60;;;;;;;1.10;68.45;98726.95;108817;1253;110796;-69
2023/03/04 08:03:59;;;;;;;60.80;30.10;;;;;;;1.05;68.29;98728.67;108691;1253;99121;-69
2023/03/04 08:06:27;;;;;;;78.20;40.10;;;;;;;1.03;68.64;98730.52;108871;1254;107358;-70
2023/03/04 08:09:05;;;;;;;95.90;47.00;;;;;;;1.04;68.69;98731.36;108901;1254;95614;-69
2023/03/04 08:11:35;;;;;;;135.70;63.20;;;;;;;1.04;68.65;98735.88;108882;1253;95626;-69
2023/03/04 08:14:04;;;;;;;110.90;53.60;;;;;;;1.02;68.63;98731.05;108871;1254;110272;-69
2023/03/04 08:16:32;;;;;;;84.10;40.80;;;;;;;1.05;68.64;98731.31;108945;1256;100658;-69
2023/03/04 08:19:02;;;;;;;79.40;39.20;;;;;;;1.07;68.70;98725.49;108907;1252;106729;-69
2023/03/04 08:21:31;;;;;;;70.90;36.00;;;;;;;1.08;68.57;98723.87;108633;1253;95965;-69
2023/03/04 08:24:07;;;;;;;72.90;37.30;;;;;;;1.07;68.60;98720.25;108862;1254;95583;-69
2023/03/04 08:26:41;;;;;;;65.80;32.80;;;;;;;1.07;68.62;98720.94;108905;1255;110752;-69
2023/03/04 08:29:15;;;;;;;66.10;34.00;;;;;;;1.06;68.47;98722.91;108705;1252;100961;-69
2023/03/04 08:31:45;;;;;;;67.10;34.00;;;;;;;1.03;68.65;98723.86;108648;1254;107617;-69
2023/03/04 08:34:21;;;;;;;63.90;32.80;;;;;;;1.04;68.37;98725.06;108816;1252;95695;-70
2023/03/04 08:36:49;;;;;;;61.50;32.50;;;;;;;1.01;68.32;98724.64;108849;1253;95589;-79
2023/03/04 08:39:18;;;;;;;57.80;29.80;;;;;;;1.00;68.21;98729.59;108898;1254;111233;-71
2023/03/04 08:41:47;;;;;;;59.20;29.20;;;;;;;0.98;68.07;98719.36;108846;1254;100542;-69
2023/03/04 08:44:15;;;;;;;51.40;26.70;;;;;;;0.98;67.98;98730.36;108844;1254;107611;-73
2023/03/04 08:46:45;;;;;;;60.00;29.30;;;;;;;0.98;68.06;98725.98;108815;1252;95752;-71
2023/03/04 08:49:13;;;;;;;52.60;26.30;;;;;;;0.99;67.54;98724.92;108670;1253;95731;-71
2023/03/04 08:51:44;;;;;;;51.30;26.20;;;;;;;0.99;67.67;98714.77;108843;1254;110960;-68
2023/03/04 08:54:11;;;;;;;53.10;27.10;;;;;;;0.98;67.69;98710.30;108867;1253;100586;-69
2023/03/04 08:56:40;;;;;;;52.70;27.20;;;;;;;0.99;67.67;98709.55;108815;1254;107443;-74
2023/03/04 08:59:08;;;;;;;58.70;29.70;;;;;;;1.01;67.86;98713.86;108837;1253;95652;-69
2023/03/04 09:01:36;;;;;;;60.70;29.10;;;;;;;1.00;67.61;98707.93;108899;1254;95537;-69
2023/03/04 09:04:04;;;;;;;59.00;29.80;;;;;;;1.01;67.85;98704.22;108854;1254;111382;-78
2023/03/04 09:06:32;;;;;;;57.30;29.00;;;;;;;1.04;67.69;98708.30;108691;1254;101469;-69
2023/03/04 09:09:01;;;;;;;53.70;29.50;;;;;;;1.06;67.99;98708.75;108871;1253;107655;-70
2023/03/04 09:11:30;;;;;;;57.20;28.70;;;;;;;1.09;67.79;98711.10;108873;1254;95634;-70
2023/03/04 09:13:57;;;;;;;53.70;27.30;;;;;;;1.12;68.04;98710.80;108894;1254;95651;-70
2023/03/04 09:16:25;;;;;;;56.60;28.00;;;;;;;1.15;67.81;98707.54;108891;1256;111306;-71
2023/03/04 09:18:53;;;;;;;53.90;27.00;;;;;;;1.16;68.12;98705.40;108750;1254;100681;-72
2023/03/04 09:21:22;;;;;;;53.50;28.00;;;;;;;1.20;67.80;98709.06;108872;1252;107596;-71
2023/03/04 09:23:50;;;;;;;62.60;30.80;;;;;;;1.19;67.58;98711.58;108890;1252;95620;-70
2023/03/04 09:26:22;;;;;;;62.30;31.40;;;;;;;1.18;67.85;98709.70;108667;1254;95686;-71
2023/03/04 09:29:03;;;;;;;57.90;31.10;;;;;;;1.18;67.71;98714.20;108639;1254;111321;-71
2023/03/04 09:31:31;;;;;;;57.60;28.50;;;;;;;1.20;67.87;98718.35;108832;1252;101386;-71
2023/03/04 09:34:00;;;;;;;55.80;29.80;;;;;;;1.21;67.60;98724.42;108768;1254;107708;-72
2023/03/04 09:36:28;;;;;;;56.60;29.10;;;;;;;1.21;67.50;98717.98;108795;1254;95607;-73
2023/03/04 09:39:00;;;;;;;58.50;30.70;;;;;;;1.21;67.68;98711.49;108765;1254;95652;-71
2023/03/04 09:41:47;;;;;;;55.60;27.10;;;;;;;1.21;67.59;98710.63;108814;1254;111146;-71
2023/03/04 09:44:36;;;;;;;53.40;28.10;;;;;;;1.26;67.45;98705.35;108811;1253;100939;-79
2023/03/04 09:47:10;;;;;;;53.00;28.40;;;;;;;1.30;67.48;98700.13;108641;1253;107873;-70
2023/03/04 09:49:43;;;;;;;54.30;29.70;;;;;;;1.31;67.44;98697.59;108792;1254;95641;-70
2023/03/04 09:52:20;;;;;;;55.00;29.00;;;;;;;1.34;67.28;98699.59;108701;1254;95737;-75
2023/03/04 09:55:02;;;;;;;64.40;32.20;;;;;;;1.38;67.59;98697.71;108812;1254;111451;-71
2023/03/04 09:57:53;;;;;;;58.60;31.10;;;;;;;1.40;67.31;98694.46;108674;1257;99867;-73
2023/03/04 10:00:52;;;;;;;52.00;25.80;;;;;;;1.47;67.32;98694.67;108629;1253;107845;-71
2023/03/04 10:03:27;;;;;;;52.10;28.40;;;;;;;1.46;66.76;98697.19;108583;1254;95646;-71
2023/03/04 10:06:05;;;;;;;53.00;29.00;;;;;;;1.43;66.44;98695.05;108699;1253;95683;-70
2023/03/04 10:09:03;;;;;;;54.00;30.70;;;;;;;1.43;66.47;98694.86;108667;1254;111229;-73
2023/03/04 10:11:39;;;;;;;52.80;28.00;;;;;;;1.45;66.68;98693.23;108692;1253;102024;-71
2023/03/04 10:14:22;;;;;;;53.60;28.40;;;;;;;1.47;66.63;98685.08;108711;1254;107606;-70
2023/03/04 10:16:56;;;;;;;54.10;29.40;;;;;;;1.50;66.30;98693.35;108689;1254;95633;-70
2023/03/04 10:20:03;;;;;;;53.90;29.60;;;;;;;1.47;65.87;98687.34;108635;1254;95726;-71
2023/03/04 10:22:35;;;;;;;53.60;28.90;;;;;;;1.48;66.88;98684.33;108651;1254;111245;-71
2023/03/04 10:25:25;;;;;;;59.20;32.30;;;;;;;1.48;66.73;98680.16;108732;1253;99642;-71
2023/03/04 10:27:57;;;;;;;59.80;31.10;;;;;;;1.42;66.13;98689.16;108649;1254;107636;-71
2023/03/04 10:30:52;;;;;;;66.20;34.10;;;;;;;1.41;66.68;98687.64;108606;1254;95670;-71
2023/03/04 10:33:25;;;;;;;68.60;34.20;;;;;;;1.41;66.78;98684.30;108709;1254;95981;-71
2023/03/04 10:36:00;;;;;;;70.80;37.00;;;;;;;1.40;66.98;98686.80;108721;1254;110778;-71
2023/03/04 10:38:34;;;;;;;68.00;34.70;;;;;;;1.40;67.16;98678.56;108602;1253;101664;-71
2023/03/04 10:41:49;;;;;;;63.50;36.60;;;;;;;1.42;66.61;98685.29;108727;1254;107114;-71
2023/03/04 10:44:31;;;;;;;63.80;33.10;;;;;;;1.36;66.59;98684.34;108664;1253;95910;-73
2023/03/04 10:46:59;;;;;;;75.70;37.70;;;;;;;1.34;66.87;98675.14;108742;1253;95814;-74
2023/03/04 10:49:28;;;;;;;58.30;32.30;;;;;;;1.36;66.64;98668.96;108635;1254;111330;-77
2023/03/04 10:52:22;;;;;;;51.10;29.20;;;;;;;1.38;66.38;98667.84;108757;1252;100940;-71
2023/03/04 10:55:02;;;;;;;;;;;;;;;1.41;66.38;98660.91;108766;1253;107458;-75
2023/03/04 10:57:37;;;;;;;45.30;24.60;;;;;;;1.41;66.21;98666.64;108579;1254;95748;-73
2023/03/04 11:00:30;;;;;;;46.00;24.30;;;;;;;1.40;65.43;98663.02;108648;1254;95684;-69
2023/03/04 11:03:17;;;;;;;42.20;24.00;;;;;;;1.38;66.24;98661.70;108739;1255;111195;-70
2023/03/04 11:05:45;;;;;;;47.90;25.70;;;;;;;1.40;66.10;98661.80;108816;1253;99977;-70
2023/03/04 11:08:19;;;;;;;45.60;25.80;;;;;;;1.40;66.22;98661.46;108826;1252;107710;-75
2023/03/04 11:10:50;;;;;;;48.60;25.90;;;;;;;1.39;66.41;98658.02;108746;1253;95621;-70
2023/03/04 11:13:21;;;;;;;47.30;27.30;;;;;;;1.39;66.61;98651.54;108870;1253;95679;-71
2023/03/04 11:15:57;;;;;;;49.30;27.40;;;;;;;1.37;66.03;98655.63;108830;1253;110774;-75
2023/03/04 11:18:51;;;;;;;54.20;29.00;;;;;;;1.34;66.43;98658.91;108740;1253;99817;-70
2023/03/04 11:21:27;;;;;;;45.40;22.80;;;;;;;1.32;66.40;98657.59;108659;1254;107322;-73
2023/03/04 11:24:02;;;;;;;63.50;34.10;;;;;;;1.29;66.59;98650.52;108617;1253;96092;-70
2023/03/04 11:26:37;;;;;;;62.00;33.90;;;;;;;1.26;66.62;98651.00;108749;1252;95635;-71